createdAt,value
2023-01-17T00:02:35.424Z,2.92
2023-01-17T00:07:55.802Z,2.60
2023-01-17T00:13:03.461Z,2.40
2023-01-17T00:18:05.465Z,2.50
2023-01-17T00:23:34.307Z,2.33
2023-01-17T00:28:38.568Z,2.47
2023-01-17T00:33:40.364Z,2.40
2023-01-17T00:38:42.169Z,1.90
2023-01-17T00:44:02.185Z,2.40
2023-01-17T00:49:22.843Z,2.00
2023-01-17T01:08:20.497Z,1.70
2023-01-17T01:13:45.611Z,1.80
2023-01-17T01:19:06.382Z,1.83
2023-01-17T01:24:26.610Z,1.95
2023-01-17T01:29:46.780Z,1.80
2023-01-17T01:34:48.377Z,2.05
2023-01-17T01:39:50.048Z,1.90
2023-01-17T01:44:53.942Z,2.08
2023-01-17T01:49:55.749Z,2.13
2023-01-17T01:55:06.804Z,2.00
2023-01-17T02:00:16.436Z,2.10
2023-01-17T02:05:21.054Z,1.67
2023-01-17T02:10:22.968Z,2.00
2023-01-17T02:15:32.902Z,1.90
2023-01-17T02:20:57.166Z,2.13
2023-01-17T02:26:18.868Z,2.40
2023-01-17T02:31:43.725Z,2.08
2023-01-17T02:37:11.807Z,2.10
2023-01-17T02:42:18.155Z,2.35
2023-01-17T02:47:30.990Z,2.30
2023-01-17T02:52:57.326Z,2.17
2023-01-17T02:58:15.643Z,2.20
2023-01-17T03:03:30.738Z,2.20
2023-01-17T03:08:34.102Z,2.20
2023-01-17T03:13:36.746Z,2.13
2023-01-17T03:18:38.365Z,2.67
2023-01-17T03:23:39.975Z,3.00
2023-01-17T03:28:41.785Z,2.92
2023-01-17T03:33:43.852Z,3.20
2023-01-17T03:38:45.859Z,2.95
2023-01-17T03:43:47.773Z,3.05
2023-01-17T03:48:49.501Z,2.88
2023-01-17T03:53:51.998Z,3.03
2023-01-17T03:58:53.739Z,3.00
2023-01-17T04:03:55.376Z,2.95
2023-01-17T04:08:56.961Z,3.42
2023-01-17T04:13:58.587Z,3.38
2023-01-17T04:19:00.224Z,3.13
2023-01-17T04:24:01.851Z,2.83
2023-01-17T04:29:04.295Z,2.80
2023-01-17T04:34:05.914Z,2.95
2023-01-17T04:39:07.584Z,2.85
2023-01-17T04:44:09.413Z,3.13
2023-01-17T04:49:11.027Z,3.03
2023-01-17T04:54:12.671Z,3.17
2023-01-17T04:59:14.335Z,3.25
2023-01-17T05:04:16.064Z,3.65
2023-01-17T05:09:17.643Z,3.22
2023-01-17T05:14:19.223Z,3.03
2023-01-17T05:19:21.900Z,3.17
2023-01-17T05:24:23.799Z,3.10
2023-01-17T05:29:25.444Z,3.10
2023-01-17T05:34:27.119Z,3.13
2023-01-17T05:39:30.890Z,2.92
2023-01-17T05:44:32.576Z,3.75
2023-01-17T05:49:34.321Z,3.28
2023-01-17T05:54:36.003Z,3.15
2023-01-17T05:59:37.782Z,3.42
2023-01-17T06:04:39.446Z,3.22
2023-01-17T06:09:41.106Z,3.03
2023-01-17T06:14:42.764Z,2.90
2023-01-17T06:19:45.470Z,2.72
2023-01-17T06:24:51.852Z,3.30
2023-01-17T06:29:53.961Z,3.30
2023-01-17T06:34:56.041Z,3.42
2023-01-17T06:39:57.705Z,3.70
2023-01-17T06:44:59.652Z,3.33
2023-01-17T06:50:03.719Z,3.60
2023-01-17T06:55:06.156Z,3.53
2023-01-17T07:00:08.566Z,3.22
2023-01-17T07:05:10.203Z,4.10
2023-01-17T07:10:14.367Z,3.67
2023-01-17T07:15:16.043Z,3.88
2023-01-17T07:20:17.741Z,3.80
2023-01-17T07:25:20.357Z,3.78
2023-01-17T07:30:22.157Z,3.97
2023-01-17T07:35:26.718Z,4.63
2023-01-17T07:40:28.354Z,3.50
2023-01-17T07:45:29.987Z,4.47
2023-01-17T07:50:31.591Z,3.95
2023-01-17T07:55:33.505Z,4.50
2023-01-17T08:00:35.132Z,4.05
2023-01-17T08:05:36.808Z,4.07
2023-01-17T08:10:38.412Z,3.92
2023-01-17T08:15:40.079Z,3.65
2023-01-17T08:20:44.317Z,4.10
2023-01-17T08:25:46.006Z,4.20
2023-01-17T08:30:47.668Z,4.00
2023-01-17T08:35:55.679Z,4.15
2023-01-17T08:41:00.933Z,3.90
2023-01-17T08:46:02.784Z,4.47
2023-01-17T08:51:04.595Z,4.15
2023-01-17T08:56:06.660Z,3.92
2023-01-17T09:01:08.369Z,4.35
2023-01-17T09:06:13.509Z,4.15
2023-01-17T09:11:17.543Z,4.43
2023-01-17T09:16:19.242Z,5.00
2023-01-17T09:21:21.210Z,4.07
2023-01-17T09:26:28.193Z,4.13
2023-01-17T09:31:30.168Z,3.90
2023-01-17T09:36:34.280Z,4.25
2023-01-17T09:42:13.733Z,4.57
2023-01-17T09:47:25.671Z,5.00
2023-01-17T09:52:30.768Z,5.35
2023-01-17T09:57:38.397Z,5.38
2023-01-17T10:02:55.446Z,5.40
2023-01-17T10:08:16.338Z,5.47
2023-01-17T10:13:46.259Z,6.55
2023-01-17T10:19:20.215Z,6.25
2023-01-17T10:24:30.772Z,7.18
2023-01-17T10:29:35.424Z,6.18
2023-01-17T10:34:46.207Z,6.40
2023-01-17T10:39:50.092Z,6.78
2023-01-17T10:45:16.532Z,7.10
2023-01-17T10:50:21.149Z,6.85
2023-01-17T10:55:34.944Z,7.95
2023-01-17T11:00:44.357Z,8.00
2023-01-17T11:05:46.509Z,7.93
2023-01-17T11:10:56.455Z,8.23
2023-01-17T11:16:05.930Z,8.50
2023-01-17T11:21:21.468Z,9.63
2023-01-17T11:26:30.317Z,9.55
2023-01-17T11:31:31.937Z,9.20
2023-01-17T11:36:34.443Z,9.40
2023-01-17T11:41:38.550Z,8.63
2023-01-17T11:46:40.202Z,8.77
2023-01-17T11:51:43.249Z,9.15
2023-01-17T11:56:46.334Z,9.00
2023-01-17T12:02:16.179Z,9.38
2023-01-17T12:07:35.549Z,8.95
2023-01-17T12:13:14.633Z,7.97
2023-01-17T12:18:41.334Z,8.05
2023-01-17T12:24:03.993Z,8.98
2023-01-17T12:29:29.973Z,9.00
2023-01-17T12:34:41.622Z,9.32
2023-01-17T12:39:52.275Z,8.38
2023-01-17T12:45:05.647Z,8.75
2023-01-17T12:50:23.727Z,9.13
2023-01-17T12:55:37.645Z,9.25
2023-01-17T13:00:50.315Z,9.32
2023-01-17T13:05:55.520Z,9.73
2023-01-17T13:11:33.473Z,9.80
2023-01-17T13:16:57.911Z,9.07
2023-01-17T13:22:02.804Z,8.82
2023-01-17T13:27:13.759Z,8.02
2023-01-17T13:32:33.969Z,8.73
2023-01-17T13:37:41.550Z,9.40
2023-01-17T13:42:56.004Z,8.25
2023-01-17T13:48:38.280Z,8.90
2023-01-17T13:53:39.936Z,9.68
2023-01-17T13:58:51.670Z,9.60
2023-01-17T14:03:56.318Z,9.18
2023-01-17T14:09:19.235Z,9.40
2023-01-17T14:14:42.803Z,8.95
2023-01-17T14:19:47.228Z,9.00
2023-01-17T14:25:10.024Z,9.13
2023-01-17T14:30:18.135Z,8.75
2023-01-17T14:35:22.380Z,9.73
2023-01-17T14:40:27.384Z,9.40
2023-01-17T14:45:31.867Z,9.05
2023-01-17T14:50:39.361Z,9.18
2023-01-17T14:55:47.008Z,9.52
2023-01-17T15:00:51.541Z,9.65
2023-01-17T15:05:55.012Z,9.50
2023-01-17T15:11:01.969Z,9.25
2023-01-17T15:16:19.113Z,9.48
2023-01-17T15:21:28.022Z,9.10
2023-01-17T15:26:40.681Z,8.80
2023-01-17T15:31:47.051Z,8.07
2023-01-17T15:36:49.858Z,8.05
2023-01-17T15:41:53.386Z,8.30
2023-01-17T15:46:55.266Z,7.20
2023-01-17T15:52:17.226Z,7.50
2023-01-17T15:57:37.488Z,7.60
2023-01-17T16:02:43.152Z,7.17
2023-01-17T16:07:45.055Z,6.40
2023-01-17T16:12:48.852Z,5.37
2023-01-17T16:17:58.074Z,5.50
2023-01-17T16:23:00.549Z,5.37
2023-01-17T16:28:03.378Z,5.07
2023-01-17T16:33:05.145Z,5.70
2023-01-17T16:38:11.087Z,4.67
2023-01-17T16:43:14.551Z,5.70
2023-01-17T16:48:18.954Z,6.70
2023-01-17T16:53:25.183Z,6.90
2023-01-17T16:58:26.934Z,6.47
2023-01-17T17:03:29.632Z,6.23
2023-01-17T17:08:33.827Z,5.30
2023-01-17T17:13:36.222Z,5.40
2023-01-17T17:18:38.193Z,5.57
2023-01-17T17:23:40.033Z,5.83
2023-01-17T17:28:41.656Z,6.40
2023-01-17T17:33:43.273Z,6.00
2023-01-17T17:38:51.038Z,6.20
2023-01-17T17:43:53.694Z,6.43
2023-01-17T17:48:57.037Z,6.40
2023-01-17T17:54:01.629Z,10.80
2023-01-17T17:59:05.685Z,7.17
2023-01-17T18:04:08.196Z,6.60
2023-01-17T18:09:11.110Z,11.30
2023-01-17T18:14:15.097Z,10.07
2023-01-17T18:19:19.947Z,10.60
2023-01-17T18:24:23.721Z,14.83
2023-01-17T18:29:26.968Z,19.90
2023-01-17T18:34:29.389Z,15.13
2023-01-17T18:39:31.320Z,10.83
2023-01-17T18:44:33.020Z,11.97
2023-01-17T18:49:35.053Z,13.23
2023-01-17T18:54:36.661Z,10.83
2023-01-17T18:59:38.283Z,9.47
2023-01-17T19:04:39.994Z,10.97
2023-01-17T19:09:41.664Z,11.83
2023-01-17T19:14:43.265Z,9.93
2023-01-17T19:19:44.956Z,10.73
2023-01-17T19:24:46.530Z,9.00
2023-01-17T19:29:48.974Z,8.97
2023-01-17T19:34:50.596Z,9.10
2023-01-17T19:39:52.311Z,8.70
2023-01-17T19:44:54.635Z,8.27
2023-01-17T19:49:56.245Z,9.00
2023-01-17T19:54:57.831Z,10.43
2023-01-17T19:59:59.416Z,9.20
2023-01-17T20:05:01.098Z,9.70
2023-01-17T20:10:02.924Z,10.60
2023-01-17T20:15:06.229Z,10.17
2023-01-17T20:20:12.776Z,10.80
2023-01-17T20:25:14.585Z,10.80
2023-01-17T20:30:20.421Z,10.93
2023-01-17T20:35:22.607Z,12.60
2023-01-17T20:40:24.200Z,13.47
2023-01-17T20:45:25.800Z,15.13
2023-01-17T20:50:27.448Z,14.43
2023-01-17T20:55:29.215Z,14.17
2023-01-17T21:00:31.155Z,14.10
2023-01-17T21:05:32.800Z,12.50
2023-01-17T21:10:34.375Z,12.80
2023-01-17T21:15:42.218Z,13.17
2023-01-17T21:20:44.082Z,13.13
2023-01-17T21:25:58.755Z,15.70
2023-01-17T21:31:01.495Z,14.67
2023-01-17T21:36:08.386Z,14.47
2023-01-17T21:41:10.026Z,11.27
2023-01-17T21:46:11.884Z,13.40
2023-01-17T21:51:13.669Z,13.73
2023-01-17T21:56:34.413Z,12.87
2023-01-17T22:01:36.108Z,12.20
2023-01-17T22:06:41.135Z,14.83
2023-01-17T22:11:42.831Z,14.67
2023-01-17T22:16:44.455Z,17.97
2023-01-17T22:21:46.052Z,19.20
2023-01-17T22:26:47.671Z,19.73
2023-01-17T22:31:49.367Z,18.77
2023-01-17T22:36:51.022Z,21.37
2023-01-17T22:41:52.651Z,20.53
2023-01-17T22:46:54.273Z,21.77
2023-01-17T22:51:55.878Z,22.90
2023-01-17T22:56:58.756Z,22.63
2023-01-17T23:02:00.374Z,19.87
2023-01-17T23:07:02.061Z,19.13
2023-01-17T23:12:03.690Z,18.73
2023-01-17T23:17:23.982Z,18.23
2023-01-17T23:22:28.086Z,19.03
2023-01-17T23:27:51.877Z,17.27
2023-01-17T23:32:56.246Z,15.80
2023-01-17T23:38:17.224Z,16.77
2023-01-17T23:43:24.665Z,18.50
2023-01-17T23:48:26.840Z,17.80
2023-01-17T23:53:28.729Z,18.07
2023-01-17T23:58:30.357Z,17.50
